Time;durP1;ratioP1;P1;durP2;ratioP2;P2;SDS_P1;SDS_P2;PMS_P1;PMS_P2;Temp;Humidity;BMP_temperature;BMP_pressure;BME280_temperature;BME280_humidity;BME280_pressure;Samples;Min_cycle;Max_cycle;Signal;HPM_P1;HPM_P2
2023/01/22 00:01:14;;;;;;;30.17;16.30;;;-1.00;33.70;;;;;;7368946;19;20034;-83
2023/01/22 00:03:44;;;;;;;30.70;15.85;;;-1.10;34.10;;;;;;7391195;19;20019;-83
2023/01/22 00:06:16;;;;;;;30.70;16.60;;;-1.10;34.30;;;;;;7369768;19;20010;-84
2023/01/22 00:08:47;;;;;;;30.40;16.20;;;-1.10;34.00;;;;;;7367628;19;20054;-83
2023/01/22 00:11:20;;;;;;;30.80;16.67;;;-1.10;34.20;;;;;;7368569;19;20010;-84
2023/01/22 00:13:50;;;;;;;30.15;15.77;;;-1.10;34.10;;;;;;7369220;19;20010;-83
2023/01/22 00:16:20;;;;;;;28.55;16.27;;;-1.10;33.50;;;;;;7368263;19;20015;-83
2023/01/22 00:18:50;;;;;;;26.45;14.75;;;-1.10;33.70;;;;;;7366105;19;20511;-83
2023/01/22 00:21:20;;;;;;;32.75;16.17;;;-1.10;33.00;;;;;;7387505;19;20466;-84
2023/01/22 00:23:50;;;;;;;30.80;15.40;;;-1.10;33.90;;;;;;7369122;19;20007;-83
2023/01/22 00:26:22;;;;;;;31.88;16.60;;;-1.00;33.10;;;;;;7367212;19;20006;-83
2023/01/22 00:28:52;;;;;;;29.20;16.00;;;-1.00;33.30;;;;;;7367620;19;20003;-84
2023/01/22 00:31:22;;;;;;;31.48;15.88;;;-1.10;33.10;;;;;;7367233;19;20023;-84
2023/01/22 00:33:52;;;;;;;32.30;15.90;;;-1.00;33.00;;;;;;7373387;19;20009;-84
2023/01/22 00:36:23;;;;;;;30.50;15.93;;;-1.00;32.90;;;;;;7396936;19;20013;-83
2023/01/22 00:38:55;;;;;;;26.08;14.32;;;-1.00;33.00;;;;;;7376422;19;20020;-83
2023/01/22 00:41:27;;;;;;;25.17;14.35;;;-1.00;32.40;;;;;;7374211;19;20030;-84
2023/01/22 00:43:57;;;;;;;27.30;15.43;;;-1.00;32.60;;;;;;7374970;19;20006;-84
2023/01/22 00:46:27;;;;;;;28.90;14.52;;;-1.00;31.90;;;;;;7374120;19;20056;-83
2023/01/22 00:48:57;;;;;;;27.17;14.35;;;-1.00;32.90;;;;;;7374302;19;20025;-84
2023/01/22 00:51:27;;;;;;;25.77;14.90;;;-1.00;31.30;;;;;;7395650;19;20624;-84
2023/01/22 00:53:56;;;;;;;26.75;14.73;;;-1.00;30.80;;;;;;7374890;19;20776;-83
2023/01/22 00:56:29;;;;;;;26.92;13.88;;;-1.00;31.70;;;;;;7373708;19;20480;-83
2023/01/22 00:58:59;;;;;;;26.77;14.50;;;-1.00;31.40;;;;;;7373330;19;20078;-83
2023/01/22 01:01:29;;;;;;;26.05;14.48;;;-1.00;30.00;;;;;;7373825;19;19998;-84
2023/01/22 01:03:59;;;;;;;27.13;13.82;;;-0.90;30.80;;;;;;7374718;19;20519;-83
2023/01/22 01:06:29;;;;;;;25.02;12.73;;;-0.90;30.00;;;;;;7395922;19;20014;-84
2023/01/22 01:08:58;;;;;;;26.63;14.43;;;-1.00;30.00;;;;;;7373178;19;20018;-85
2023/01/22 01:11:31;;;;;;;29.35;14.95;;;-1.00;30.40;;;;;;7374516;19;20027;-83
2023/01/22 01:14:01;;;;;;;29.27;14.88;;;-1.00;30.10;;;;;;7374629;19;20012;-83
2023/01/22 01:16:32;;;;;;;28.52;15.27;;;-1.00;30.30;;;;;;7373150;19;20014;-83
2023/01/22 01:19:03;;;;;;;26.58;14.10;;;-1.00;30.60;;;;;;7373192;19;20018;-84
2023/01/22 01:21:35;;;;;;;27.02;14.50;;;-1.00;30.40;;;;;;7401498;19;20011;-83
2023/01/22 01:24:05;;;;;;;29.85;15.93;;;-1.00;30.00;;;;;;7380887;19;20790;-83
2023/01/22 01:26:38;;;;;;;28.85;16.10;;;-0.90;30.50;;;;;;7372886;19;20010;-83
2023/01/22 01:29:09;;;;;;;27.50;14.98;;;-0.90;30.00;;;;;;7372690;19;20124;-83
2023/01/22 01:31:40;;;;;;;28.50;14.70;;;-0.90;30.00;;;;;;7372850;19;20123;-84
2023/01/22 01:34:10;;;;;;;26.52;14.55;;;-0.90;29.70;;;;;;7373583;19;20017;-83
2023/01/22 01:36:43;;;;;;;24.40;14.13;;;-0.90;29.90;;;;;;7393239;19;20014;-84
2023/01/22 01:39:18;;;;;;;24.48;13.07;;;-0.90;30.00;;;;;;7370890;19;20010;-83
2023/01/22 01:41:51;;;;;;;28.55;14.70;;;-0.90;30.20;;;;;;7372368;19;19999;-84
2023/01/22 01:44:23;;;;;;;23.48;13.27;;;-0.90;30.50;;;;;;7372053;19;20023;-84
2023/01/22 01:46:59;;;;;;;29.23;14.55;;;-0.90;30.40;;;;;;7371643;19;20026;-83
2023/01/22 01:49:32;;;;;;;26.73;14.27;;;-0.90;30.00;;;;;;7371095;19;20010;-84
2023/01/22 01:52:08;;;;;;;25.52;13.70;;;-0.80;30.40;;;;;;7373636;19;20014;-83
2023/01/22 01:54:38;;;;;;;25.95;14.38;;;-0.90;30.20;;;;;;7393861;19;20011;-83
2023/01/22 01:57:16;;;;;;;26.15;13.85;;;-0.80;30.20;;;;;;7373130;19;20427;-84
2023/01/22 01:59:49;;;;;;;24.85;14.55;;;-0.90;30.20;;;;;;7371225;19;20018;-83
2023/01/22 02:02:19;;;;;;;29.30;14.95;;;-0.90;30.00;;;;;;7372364;19;20070;-84
2023/01/22 02:04:50;;;;;;;25.73;14.15;;;-0.90;30.00;;;;;;7373135;19;20010;-84
2023/01/22 02:07:21;;;;;;;29.52;15.02;;;-0.90;29.90;;;;;;7371430;19;20017;-84
2023/01/22 02:09:51;;;;;;;26.52;14.00;;;-0.80;30.60;;;;;;7370134;19;20013;-84
2023/01/22 02:12:23;;;;;;;25.90;14.48;;;-0.70;30.80;;;;;;7391692;19;20358;-84
2023/01/22 02:14:54;;;;;;;30.27;14.88;;;-0.80;29.30;;;;;;7372734;19;20420;-83
2023/01/22 02:17:24;;;;;;;24.75;13.95;;;-0.80;29.80;;;;;;7371090;19;20020;-83
2023/01/22 02:19:54;;;;;;;24.45;13.95;;;-0.80;29.50;;;;;;7370750;19;20006;-83
2023/01/22 02:22:30;;;;;;;24.73;13.70;;;-0.80;29.40;;;;;;7370346;19;20011;-84
2023/01/22 02:25:00;;;;;;;22.52;12.88;;;-0.80;29.40;;;;;;7372402;19;20698;-82
2023/01/22 02:27:30;;;;;;;22.95;12.48;;;-0.80;29.40;;;;;;7394149;19;20395;-82
2023/01/22 02:30:00;;;;;;;23.23;13.25;;;-0.70;29.50;;;;;;7372142;19;20355;-83
2023/01/22 02:32:30;;;;;;;23.45;12.93;;;-0.70;29.40;;;;;;7371989;19;20029;-83
2023/01/22 02:35:00;;;;;;;21.83;13.68;;;-0.70;29.40;;;;;;7372705;19;20577;-82
2023/01/22 02:37:32;;;;;;;26.15;13.50;;;-0.70;29.40;;;;;;7373029;19;20037;-82
2023/01/22 02:40:02;;;;;;;24.67;12.63;;;-0.70;29.00;;;;;;7369912;19;20029;-84
2023/01/22 02:42:32;;;;;;;22.25;13.10;;;-0.70;28.50;;;;;;7418184;19;19999;-83
2023/01/22 02:45:02;;;;;;;24.63;14.10;;;-0.70;28.80;;;;;;7406977;19;20070;-82
2023/01/22 02:47:32;;;;;;;23.55;13.30;;;-0.70;29.00;;;;;;7405098;19;20010;-80
2023/01/22 02:50:03;;;;;;;24.10;14.05;;;-0.60;29.50;;;;;;7373500;19;20006;-83
2023/01/22 02:52:35;;;;;;;23.73;12.57;;;-0.70;29.00;;;;;;7372264;19;20367;-84
2023/01/22 02:55:06;;;;;;;22.60;13.32;;;-0.70;28.50;;;;;;7371633;19;20025;-84
2023/01/22 02:57:36;;;;;;;23.27;13.02;;;-0.60;28.80;;;;;;7390295;19;20011;-82
2023/01/22 03:00:07;;;;;;;26.48;13.52;;;-0.60;28.70;;;;;;7369832;19;20065;-78
2023/01/22 03:02:37;;;;;;;18.85;12.18;;;-0.60;29.20;;;;;;7368461;19;20021;-82
2023/01/22 03:05:08;;;;;;;21.75;12.85;;;-0.60;28.90;;;;;;7370483;19;20007;-82
2023/01/22 03:07:43;;;;;;;21.77;12.27;;;-0.60;28.60;;;;;;7369384;19;20009;-82
2023/01/22 03:10:16;;;;;;;24.65;14.73;;;-0.60;29.00;;;;;;7368226;19;20538;-84
2023/01/22 03:23:40;;;;;;;23.05;12.68;;;-0.70;29.50;;;;;;7369640;19;20010;-83
2023/01/22 03:26:10;;;;;;;19.15;11.93;;;-0.60;29.90;;;;;;7370035;19;20027;-83
2023/01/22 03:28:40;;;;;;;25.10;14.00;;;-0.60;30.10;;;;;;7369329;19;20077;-83
2023/01/22 03:31:10;;;;;;;23.90;14.15;;;-0.60;30.00;;;;;;7370293;19;20074;-83
2023/01/22 03:33:41;;;;;;;24.42;13.15;;;-0.60;29.80;;;;;;7391163;19;20035;-82
2023/01/22 03:36:13;;;;;;;25.75;13.65;;;-0.60;30.00;;;;;;7370184;19;20027;-83
2023/01/22 03:38:45;;;;;;;25.00;13.35;;;-0.60;30.00;;;;;;7368308;19;20094;-86
2023/01/22 03:41:17;;;;;;;27.73;14.43;;;-0.70;29.40;;;;;;7370007;19;20007;-82
2023/01/22 03:43:48;;;;;;;22.73;12.27;;;-0.60;29.90;;;;;;7368151;19;20484;-83
2023/01/22 03:46:21;;;;;;;23.92;14.07;;;-0.70;29.70;;;;;;7369606;19;20014;-83
2023/01/22 03:48:53;;;;;;;24.00;13.02;;;-0.60;29.70;;;;;;7368117;19;20081;-84
2023/01/22 03:51:24;;;;;;;21.27;11.82;;;-0.60;31.00;;;;;;7389782;19;20022;-83
2023/01/22 03:53:56;;;;;;;23.92;13.43;;;-0.60;30.30;;;;;;7369119;19;20061;-83
2023/01/22 03:56:27;;;;;;;27.38;14.45;;;-0.60;30.00;;;;;;7367941;19;20370;-83
2023/01/22 03:58:57;;;;;;;22.98;13.05;;;-0.60;30.30;;;;;;7368435;19;20047;-83
2023/01/22 04:01:29;;;;;;;26.88;14.95;;;-0.60;30.00;;;;;;7368234;19;20023;-84
2023/01/22 04:03:59;;;;;;;24.27;12.98;;;-0.60;30.50;;;;;;7366369;19;20078;-83
2023/01/22 04:06:30;;;;;;;21.75;13.02;;;-0.60;30.60;;;;;;7389944;19;20018;-83
2023/01/22 04:09:02;;;;;;;24.65;13.80;;;-0.60;30.90;;;;;;7370469;19;20086;-82
2023/01/22 04:11:32;;;;;;;23.88;13.45;;;-0.60;31.10;;;;;;7381284;19;20014;-82
2023/01/22 04:14:02;;;;;;;25.63;13.13;;;-0.60;31.50;;;;;;7378812;19;20015;-83
2023/01/22 04:16:32;;;;;;;24.63;12.95;;;-0.60;30.80;;;;;;7375836;19;20017;-82
2023/01/22 04:19:03;;;;;;;24.83;13.88;;;-0.60;31.40;;;;;;7374476;19;20510;-83
2023/01/22 04:21:33;;;;;;;22.50;12.93;;;-0.60;31.00;;;;;;7397446;19;20010;-83
2023/01/22 04:24:08;;;;;;;20.15;12.30;;;-0.60;31.10;;;;;;7373988;19;20084;-83
2023/01/22 04:26:38;;;;;;;23.60;13.05;;;-0.60;31.20;;;;;;7375569;19;20014;-82
2023/01/22 04:29:08;;;;;;;22.65;12.93;;;-0.60;31.80;;;;;;7374621;19;20102;-82
2023/01/22 04:31:38;;;;;;;22.67;13.52;;;-0.60;31.50;;;;;;7375951;19;20021;-82
2023/01/22 04:34:11;;;;;;;24.77;13.30;;;-0.60;31.80;;;;;;7376066;19;20011;-82
2023/01/22 04:36:41;;;;;;;23.98;14.23;;;-0.50;31.90;;;;;;7397769;19;20027;-81
2023/01/22 04:39:16;;;;;;;23.42;13.07;;;-0.60;31.50;;;;;;7374085;19;20011;-82
2023/01/22 04:41:46;;;;;;;25.02;14.43;;;-0.60;31.70;;;;;;7374681;19;20427;-83
2023/01/22 04:44:16;;;;;;;25.08;14.50;;;-0.60;32.20;;;;;;7375511;19;20018;-82
2023/01/22 04:46:46;;;;;;;24.10;13.73;;;-0.60;32.00;;;;;;7375731;19;20007;-83
2023/01/22 04:49:16;;;;;;;26.23;14.43;;;-0.60;32.30;;;;;;7375414;19;20014;-83
2023/01/22 04:51:47;;;;;;;23.25;13.77;;;-0.60;32.30;;;;;;7406147;19;20025;-84
2023/01/22 04:54:19;;;;;;;24.60;14.25;;;-0.60;32.50;;;;;;7401711;19;20066;-83
2023/01/22 04:56:49;;;;;;;25.50;14.05;;;-0.60;32.00;;;;;;7375219;19;20010;-82
2023/01/22 04:59:19;;;;;;;24.63;13.38;;;-0.60;32.80;;;;;;7373128;19;20401;-82
2023/01/22 05:01:49;;;;;;;25.23;13.65;;;-0.60;32.80;;;;;;7373812;19;20016;-81
2023/01/22 05:04:20;;;;;;;26.98;14.77;;;-0.60;33.40;;;;;;7373193;19;20006;-82
2023/01/22 05:06:50;;;;;;;27.58;14.57;;;-0.60;33.20;;;;;;7375072;19;20011;-82
2023/01/22 05:09:23;;;;;;;27.92;14.68;;;-0.60;33.40;;;;;;7394502;19;20466;-81
2023/01/22 05:11:53;;;;;;;25.50;13.45;;;-0.70;33.30;;;;;;7376090;19;20022;-83
2023/01/22 05:14:23;;;;;;;25.98;14.73;;;-0.60;33.40;;;;;;7373603;19;20951;-82
2023/01/22 05:16:53;;;;;;;28.08;15.00;;;-0.60;33.40;;;;;;7374435;19;20003;-82
2023/01/22 05:19:22;;;;;;;26.45;14.77;;;-0.60;33.40;;;;;;7372563;19;20003;-83
2023/01/22 05:21:52;;;;;;;27.42;14.27;;;-0.60;33.50;;;;;;7372579;19;20504;-83
2023/01/22 05:24:25;;;;;;;30.15;15.45;;;-0.60;33.50;;;;;;7393277;19;20474;-82
2023/01/22 05:26:55;;;;;;;29.90;15.65;;;-0.60;33.50;;;;;;7373616;19;20481;-82
2023/01/22 05:29:26;;;;;;;28.65;15.18;;;-0.60;33.50;;;;;;7371917;19;20017;-82
2023/01/22 05:31:56;;;;;;;27.90;15.57;;;-0.60;33.70;;;;;;7374392;19;20036;-83
2023/01/22 05:34:26;;;;;;;28.08;15.55;;;-0.50;33.80;;;;;;7372902;19;20027;-82
2023/01/22 05:36:56;;;;;;;34.67;15.90;;;-0.60;34.10;;;;;;7373792;19;20014;-83
2023/01/22 05:39:29;;;;;;;30.20;16.20;;;-0.60;34.40;;;;;;7392992;19;20014;-82
2023/01/22 05:41:59;;;;;;;31.17;16.13;;;-0.60;34.90;;;;;;7373364;19;20010;-83
2023/01/22 05:44:29;;;;;;;31.27;16.83;;;-0.60;34.70;;;;;;7372314;19;20086;-82
2023/01/22 05:47:01;;;;;;;30.30;15.80;;;-0.60;34.70;;;;;;7373803;19;20053;-82
2023/01/22 05:49:31;;;;;;;31.83;16.55;;;-0.70;35.00;;;;;;7371762;19;20451;-83
2023/01/22 05:52:01;;;;;;;28.98;15.00;;;-0.60;35.00;;;;;;7373784;19;20074;-84
2023/01/22 05:54:33;;;;;;;32.65;17.15;;;-0.60;35.40;;;;;;7396398;19;20039;-84
2023/01/22 05:57:03;;;;;;;32.10;17.63;;;-0.60;36.00;;;;;;7372471;19;20407;-83
2023/01/22 05:59:33;;;;;;;35.00;17.30;;;-0.60;35.90;;;;;;7371606;19;20023;-83
2023/01/22 06:02:03;;;;;;;27.38;15.65;;;-0.60;35.90;;;;;;7374219;19;20021;-83
2023/01/22 06:04:33;;;;;;;30.10;16.17;;;-0.60;35.80;;;;;;7371970;19;20006;-82
2023/01/22 06:07:03;;;;;;;33.47;16.98;;;-0.60;36.20;;;;;;7372892;19;20018;-83
2023/01/22 06:09:36;;;;;;;38.13;18.10;;;-0.60;36.00;;;;;;7413705;19;20112;-82
2023/01/22 06:12:06;;;;;;;38.50;17.40;;;-0.50;36.40;;;;;;7396658;19;20042;-82
2023/01/22 06:14:36;;;;;;;33.40;16.73;;;-0.60;36.30;;;;;;7394396;19;20017;-81
2023/01/22 06:17:06;;;;;;;32.90;16.98;;;-0.60;36.40;;;;;;7374193;19;20010;-82
2023/01/22 06:19:35;;;;;;;36.13;17.67;;;-0.60;36.90;;;;;;7371982;19;20374;-83
2023/01/22 06:22:05;;;;;;;35.20;17.00;;;-0.50;37.20;;;;;;7372949;19;20090;-83
2023/01/22 06:24:39;;;;;;;34.20;17.27;;;-0.60;37.10;;;;;;7392332;19;20026;-82
2023/01/22 06:27:09;;;;;;;31.70;16.38;;;-0.60;37.00;;;;;;7372372;19;20017;-82
2023/01/22 06:29:38;;;;;;;32.45;17.55;;;-0.60;37.20;;;;;;7370733;19;20006;-83
2023/01/22 06:32:09;;;;;;;33.45;17.90;;;-0.60;37.40;;;;;;7372789;19;20007;-83
2023/01/22 06:34:39;;;;;;;33.97;17.15;;;-0.50;37.80;;;;;;7372129;19;20002;-83
2023/01/22 06:37:08;;;;;;;31.60;17.63;;;-0.50;37.90;;;;;;7372942;19;20000;-83
2023/01/22 06:39:41;;;;;;;36.25;17.33;;;-0.60;37.60;;;;;;7391458;19;20014;-82
2023/01/22 06:42:11;;;;;;;33.05;16.63;;;-0.50;37.90;;;;;;7371402;19;20455;-82
2023/01/22 06:44:41;;;;;;;34.08;17.45;;;-0.50;38.30;;;;;;7369865;19;20024;-82
2023/01/22 06:47:10;;;;;;;34.40;17.65;;;-0.50;38.40;;;;;;7371704;19;20032;-83
2023/01/22 06:49:40;;;;;;;34.63;17.65;;;-0.40;39.00;;;;;;7370488;19;20010;-83
2023/01/22 06:52:10;;;;;;;39.38;18.63;;;-0.40;38.70;;;;;;7371856;19;20011;-83
2023/01/22 06:54:42;;;;;;;34.92;17.38;;;-0.40;38.40;;;;;;7390715;19;20094;-83
2023/01/22 06:57:12;;;;;;;38.42;18.05;;;-0.40;38.00;;;;;;7371670;19;20007;-83
2023/01/22 06:59:42;;;;;;;34.08;17.95;;;-0.50;38.10;;;;;;7368733;19;20031;-83
2023/01/22 07:02:17;;;;;;;37.28;18.25;;;-0.50;37.90;;;;;;7371848;19;20006;-82
2023/01/22 07:04:47;;;;;;;37.55;18.70;;;-0.40;38.70;;;;;;7370582;19;20013;-82
2023/01/22 07:07:17;;;;;;;37.53;18.15;;;-0.50;38.00;;;;;;7371390;19;20117;-82
2023/01/22 07:09:50;;;;;;;29.08;16.67;;;-0.40;38.20;;;;;;7385637;19;20031;-81
2023/01/22 07:12:20;;;;;;;36.33;17.50;;;-0.40;38.80;;;;;;7391843;19;20359;-83
2023/01/22 07:14:49;;;;;;;32.78;18.52;;;-0.40;38.40;;;;;;7370394;19;20010;-82
2023/01/22 07:17:19;;;;;;;40.33;18.58;;;-0.40;39.30;;;;;;7371304;19;20006;-82
2023/01/22 07:19:49;;;;;;;34.58;17.98;;;-0.40;39.10;;;;;;7369534;19;20010;-82
2023/01/22 07:22:19;;;;;;;34.63;17.13;;;-0.40;39.60;;;;;;7371160;19;20038;-81
2023/01/22 07:24:51;;;;;;;34.08;17.13;;;-0.30;39.50;;;;;;7370066;19;20007;-82
2023/01/22 07:27:21;;;;;;;36.28;17.95;;;-0.30;40.00;;;;;;7390814;19;20014;-82
2023/01/22 07:29:51;;;;;;;32.60;16.55;;;-0.40;39.20;;;;;;7368703;19;20010;-82
2023/01/22 07:32:21;;;;;;;34.33;17.95;;;-0.40;39.50;;;;;;7369732;19;20021;-82
2023/01/22 07:34:51;;;;;;;39.15;19.17;;;-0.40;40.00;;;;;;7369633;19;20010;-83
2023/01/22 07:37:20;;;;;;;34.53;18.75;;;-0.40;39.90;;;;;;7370968;19;20006;-82
2023/01/22 07:39:53;;;;;;;35.15;18.45;;;-0.40;39.80;;;;;;7367984;19;20487;-82
2023/01/22 07:42:23;;;;;;;34.13;17.52;;;-0.40;40.10;;;;;;7391256;19;20411;-82
2023/01/22 07:44:53;;;;;;;36.10;17.85;;;-0.40;40.20;;;;;;7367556;19;20070;-82
2023/01/22 07:47:22;;;;;;;36.90;18.75;;;-0.40;40.50;;;;;;7369404;19;20013;-82
2023/01/22 07:49:52;;;;;;;34.83;16.88;;;-0.30;40.80;;;;;;7368084;19;20014;-81
2023/01/22 07:52:22;;;;;;;35.25;17.50;;;-0.30;40.80;;;;;;7369259;19;20462;-83
2023/01/22 07:54:54;;;;;;;33.63;18.08;;;-0.30;40.80;;;;;;7369432;19;20073;-83
2023/01/22 07:57:24;;;;;;;38.53;18.60;;;-0.30;41.40;;;;;;7390497;19;20381;-83
2023/01/22 07:59:54;;;;;;;32.80;18.23;;;-0.30;41.60;;;;;;7367560;19;20086;-82
2023/01/22 08:02:24;;;;;;;37.83;18.80;;;-0.30;41.90;;;;;;7368790;19;20434;-82
2023/01/22 08:04:54;;;;;;;38.88;19.33;;;-0.30;41.70;;;;;;7369368;19;20009;-82
2023/01/22 08:07:23;;;;;;;39.67;19.17;;;-0.20;41.90;;;;;;7368809;19;20086;-82
2023/01/22 08:09:59;;;;;;;37.15;18.00;;;-0.20;41.80;;;;;;7367417;19;20054;-81
2023/01/22 08:12:28;;;;;;;38.58;19.88;;;-0.20;41.90;;;;;;7389726;19;20082;-83
2023/01/22 08:14:58;;;;;;;40.60;20.70;;;-0.10;42.00;;;;;;7368533;19;20007;-81
2023/01/22 08:17:28;;;;;;;38.90;18.67;;;-0.10;42.00;;;;;;7368307;19;20014;-82
2023/01/22 08:19:58;;;;;;;41.30;19.88;;;-0.20;41.70;;;;;;7342729;19;20015;-82
2023/01/22 08:22:28;;;;;;;40.72;20.65;;;-0.20;41.70;;;;;;7366153;19;20029;-79
2023/01/22 08:25:00;;;;;;;38.08;18.67;;;-0.10;42.00;;;;;;7362994;19;20095;-79
2023/01/22 08:27:30;;;;;;;40.70;19.67;;;-0.10;42.10;;;;;;7385933;19;20011;-79
2023/01/22 08:30:00;;;;;;;42.97;19.85;;;-0.10;42.00;;;;;;7366083;19;20019;-80
2023/01/22 08:32:30;;;;;;;40.65;19.02;;;-0.10;42.00;;;;;;7363337;19;20062;-80
2023/01/22 08:35:00;;;;;;;41.72;18.92;;;-0.10;41.50;;;;;;7364663;19;20589;-79
2023/01/22 08:37:29;;;;;;;41.15;19.17;;;-0.20;40.90;;;;;;7367747;19;20011;-80
2023/01/22 08:40:02;;;;;;;39.97;18.45;;;-0.10;42.00;;;;;;7363201;19;20024;-79
2023/01/22 08:42:32;;;;;;;37.83;18.85;;;0.00;42.10;;;;;;7385841;19;20040;-79
2023/01/22 08:45:02;;;;;;;41.85;19.10;;;0.00;42.10;;;;;;7366310;19;20074;-79
2023/01/22 08:47:31;;;;;;;38.55;19.38;;;0.10;42.20;;;;;;7364959;19;20083;-79
2023/01/22 08:50:02;;;;;;;42.13;19.70;;;0.10;42.30;;;;;;7363307;19;20018;-79
2023/01/22 08:52:32;;;;;;;35.28;18.77;;;0.00;42.10;;;;;;7367557;19;20574;-78
2023/01/22 08:55:08;;;;;;;35.30;18.50;;;0.00;41.10;;;;;;7365741;19;20006;-79
2023/01/22 08:57:38;;;;;;;43.90;19.17;;;0.10;42.00;;;;;;7395519;19;20023;-80
2023/01/22 09:00:10;;;;;;;41.50;19.08;;;0.10;42.20;;;;;;7370953;19;20473;-80
2023/01/22 09:02:40;;;;;;;37.65;18.83;;;0.20;41.40;;;;;;7374004;19;20009;-80
2023/01/22 09:05:11;;;;;;;34.38;17.17;;;0.10;40.60;;;;;;7373166;19;20006;-82
2023/01/22 09:07:41;;;;;;;45.83;20.25;;;0.10;40.70;;;;;;7374177;19;20006;-81
2023/01/22 09:10:13;;;;;;;35.40;17.23;;;0.20;40.90;;;;;;7372327;19;20010;-81
2023/01/22 09:12:43;;;;;;;40.08;18.83;;;0.10;39.40;;;;;;7395598;19;20011;-80
2023/01/22 09:15:14;;;;;;;37.58;18.17;;;0.10;39.60;;;;;;7374744;19;20010;-82
2023/01/22 09:17:43;;;;;;;39.13;18.15;;;0.10;39.50;;;;;;7375379;19;20558;-83
2023/01/22 09:20:13;;;;;;;39.72;19.25;;;0.30;40.50;;;;;;7374152;19;20003;-80
2023/01/22 09:22:46;;;;;;;39.78;19.42;;;0.40;40.50;;;;;;7373605;19;20090;-82
2023/01/22 09:25:19;;;;;;;34.17;17.35;;;0.10;38.00;;;;;;7373425;19;20025;-79
2023/01/22 09:27:49;;;;;;;36.83;17.85;;;0.20;39.30;;;;;;7374480;19;20019;-82
2023/01/22 09:30:19;;;;;;;38.25;18.48;;;0.30;39.60;;;;;;7396782;19;20007;-79
2023/01/22 09:32:49;;;;;;;35.15;18.45;;;0.30;39.00;;;;;;7377141;19;20018;-80
2023/01/22 09:35:19;;;;;;;39.05;18.35;;;0.40;39.40;;;;;;7379561;19;20056;-78
2023/01/22 09:37:49;;;;;;;36.72;19.08;;;0.30;36.30;;;;;;7373304;19;20006;-78
2023/01/22 09:40:28;;;;;;;37.83;18.30;;;0.40;38.20;;;;;;7371935;19;20019;-79
2023/01/22 09:43:06;;;;;;;35.28;18.45;;;0.40;36.80;;;;;;7369827;19;20018;-79
2023/01/22 09:45:39;;;;;;;37.95;17.92;;;0.50;38.30;;;;;;7392698;19;20021;-79
2023/01/22 09:48:15;;;;;;;36.80;17.70;;;0.60;36.10;;;;;;7373545;19;20030;-79
2023/01/22 09:50:46;;;;;;;38.15;18.80;;;0.80;38.30;;;;;;7371421;19;20018;-78
2023/01/22 09:53:19;;;;;;;37.30;17.83;;;0.70;34.90;;;;;;7372534;19;20019;-76
2023/01/22 09:55:54;;;;;;;31.85;16.58;;;0.70;34.70;;;;;;7372454;19;20474;-76
2023/01/22 09:58:26;;;;;;;31.88;17.02;;;0.70;34.40;;;;;;7372325;19;20090;-77
2023/01/22 10:00:59;;;;;;;32.25;16.77;;;0.60;31.50;;;;;;7372140;19;20019;-77
2023/01/22 10:03:34;;;;;;;33.15;17.33;;;0.70;34.50;;;;;;7391557;19;20007;-78
2023/01/22 10:06:10;;;;;;;34.67;19.40;;;0.80;34.50;;;;;;7368169;19;20030;-77
2023/01/22 10:08:53;;;;;;;31.95;16.27;;;0.80;33.20;;;;;;7368814;19;20549;-77
2023/01/22 10:11:26;;;;;;;31.67;15.90;;;0.80;32.50;;;;;;7369565;19;20019;-77
2023/01/22 10:13:58;;;;;;;30.67;15.55;;;0.70;33.10;;;;;;7369376;19;20010;-77
2023/01/22 10:16:28;;;;;;;32.90;15.40;;;0.70;32.80;;;;;;7372157;19;20007;-77
2023/01/22 10:19:03;;;;;;;35.30;15.80;;;0.70;32.30;;;;;;7370023;19;20032;-77
2023/01/22 10:21:35;;;;;;;30.45;15.68;;;0.60;33.10;;;;;;7391917;19;20373;-76
2023/01/22 10:24:05;;;;;;;33.35;16.85;;;0.70;33.30;;;;;;7369251;19;20006;-76
2023/01/22 10:26:40;;;;;;;34.10;16.48;;;0.70;33.10;;;;;;7368425;19;20017;-78
2023/01/22 10:29:14;;;;;;;27.45;14.55;;;0.70;32.80;;;;;;7367276;19;20031;-77
2023/01/22 10:31:49;;;;;;;27.75;14.27;;;0.70;33.70;;;;;;7368889;19;20084;-76
2023/01/22 10:34:26;;;;;;;28.95;14.68;;;0.70;31.60;;;;;;7371065;19;20010;-78
2023/01/22 10:36:56;;;;;;;28.48;14.93;;;0.70;33.80;;;;;;7366638;19;20073;-77
2023/01/22 10:39:26;;;;;;;30.30;15.10;;;0.70;32.30;;;;;;7386726;19;20013;-78
2023/01/22 10:42:04;;;;;;;32.30;15.48;;;0.70;32.20;;;;;;7366659;19;20030;-78
2023/01/22 10:44:34;;;;;;;28.88;14.85;;;0.70;33.10;;;;;;7368753;19;20011;-78
2023/01/22 10:47:17;;;;;;;32.40;16.67;;;0.80;32.70;;;;;;7367815;19;20349;-78
2023/01/22 10:49:47;;;;;;;33.45;16.83;;;0.80;32.30;;;;;;7368087;19;20011;-78
2023/01/22 10:52:25;;;;;;;30.25;16.15;;;0.80;32.00;;;;;;7369505;19;20010;-78
2023/01/22 10:54:59;;;;;;;29.38;15.30;;;0.80;31.80;;;;;;7370251;19;20011;-78
2023/01/22 10:57:34;;;;;;;30.00;15.63;;;0.80;30.80;;;;;;7389795;19;20042;-78
2023/01/22 11:00:21;;;;;;;30.92;16.55;;;0.80;31.70;;;;;;7367783;19;20015;-76
2023/01/22 11:02:52;;;;;;;32.42;16.27;;;0.80;31.80;;;;;;7365310;19;20029;-77
2023/01/22 11:05:24;;;;;;;30.15;16.15;;;0.80;32.00;;;;;;7363300;19;20006;-76
2023/01/22 11:07:59;;;;;;;29.60;15.80;;;0.90;32.20;;;;;;7364854;19;20078;-77
2023/01/22 11:10:33;;;;;;;32.53;15.85;;;1.00;32.40;;;;;;7362949;19;20006;-76
2023/01/22 11:13:13;;;;;;;31.38;16.42;;;0.90;32.30;;;;;;7364460;19;20015;-76
2023/01/22 11:15:52;;;;;;;29.98;16.27;;;1.00;31.40;;;;;;7385898;19;20022;-77
2023/01/22 11:18:30;;;;;;;31.65;15.52;;;1.10;31.50;;;;;;7362179;19;20032;-77
2023/01/22 11:21:02;;;;;;;27.15;15.00;;;1.00;30.50;;;;;;7369203;19;20496;-76
2023/01/22 11:23:40;;;;;;;28.67;14.32;;;1.10;30.90;;;;;;7368417;19;20038;-76
2023/01/22 11:26:18;;;;;;;25.38;14.00;;;1.20;30.60;;;;;;7369729;19;20017;-78
2023/01/22 11:29:03;;;;;;;25.17;13.75;;;1.10;27.70;;;;;;7368030;19;20014;-77
2023/01/22 11:31:46;;;;;;;28.00;13.65;;;1.20;29.00;;;;;;7367940;19;20081;-78
2023/01/22 11:34:53;;;;;;;24.02;12.95;;;1.20;27.90;;;;;;7367026;19;20407;-77
2023/01/22 11:37:45;;;;;;;24.38;12.70;;;1.30;27.50;;;;;;7366776;19;20110;-78
2023/01/22 11:40:26;;;;;;;19.75;11.48;;;1.50;28.00;;;;;;7365353;19;20010;-76
2023/01/22 11:43:13;;;;;;;18.30;10.35;;;1.50;25.90;;;;;;7367576;19;20006;-77
2023/01/22 11:46:09;;;;;;;23.33;12.00;;;1.30;22.50;;;;;;7390297;19;20014;-80
2023/01/22 11:48:52;;;;;;;19.13;10.07;;;1.40;24.10;;;;;;7365630;19;20850;-77
2023/01/22 11:51:29;;;;;;;20.55;11.52;;;1.50;24.00;;;;;;7366503;19;20006;-76
2023/01/22 11:54:20;;;;;;;23.10;11.65;;;1.40;24.10;;;;;;7367912;19;20347;-76
2023/01/22 11:57:06;;;;;;;17.00;10.30;;;1.50;24.10;;;;;;7367021;19;20002;-77
2023/01/22 11:59:49;;;;;;;19.67;10.32;;;1.40;22.70;;;;;;7366778;19;20086;-76
2023/01/22 12:02:45;;;;;;;15.82;9.15;;;1.60;21.30;;;;;;7368038;19;20383;-79
2023/01/22 12:05:25;;;;;;;17.90;9.65;;;1.60;21.20;;;;;;7367611;19;20011;-78
2023/01/22 12:08:22;;;;;;;16.50;9.52;;;1.60;19.60;;;;;;7368296;19;20006;-78
2023/01/22 12:11:15;;;;;;;14.82;8.52;;;1.70;19.10;;;;;;7367536;19;20107;-78
2023/01/22 12:14:02;;;;;;;15.45;8.00;;;1.60;18.50;;;;;;7366983;19;20017;-77
2023/01/22 12:16:41;;;;;;;14.40;8.73;;;1.60;18.10;;;;;;7368103;19;20033;-77
2023/01/22 12:19:46;;;;;;;12.63;8.05;;;1.70;17.90;;;;;;7366156;19;20091;-77
2023/01/22 12:22:29;;;;;;;14.30;8.48;;;1.70;17.10;;;;;;7367946;19;20014;-77
2023/01/22 12:25:03;;;;;;;13.43;7.93;;;1.70;17.20;;;;;;7367807;19;20015;-76
2023/01/22 12:27:38;;;;;;;16.08;8.15;;;1.60;17.40;;;;;;7386654;19;20015;-76
2023/01/22 12:30:19;;;;;;;14.73;9.05;;;1.70;18.10;;;;;;7366726;19;20013;-76
2023/01/22 12:32:57;;;;;;;13.13;7.78;;;1.60;17.40;;;;;;7373386;19;20474;-77
2023/01/22 12:35:32;;;;;;;11.60;7.50;;;1.50;15.70;;;;;;7374448;19;20011;-76
2023/01/22 12:38:15;;;;;;;15.30;7.70;;;1.50;16.00;;;;;;7374986;19;20010;-77
2023/01/22 12:41:04;;;;;;;14.35;7.55;;;1.60;16.00;;;;;;7373352;19;20020;-77
2023/01/22 12:43:39;;;;;;;13.02;6.97;;;1.50;14.90;;;;;;7373616;19;20086;-77
2023/01/22 12:46:20;;;;;;;13.13;8.02;;;1.50;15.00;;;;;;7375458;19;20048;-76
2023/01/22 12:48:56;;;;;;;12.88;8.07;;;1.50;15.70;;;;;;7370445;19;20018;-77
2023/01/22 12:51:40;;;;;;;14.73;7.13;;;1.60;16.10;;;;;;7392094;19;20018;-75
2023/01/22 12:54:23;;;;;;;11.10;7.20;;;1.60;13.90;;;;;;7373761;19;20010;-76
2023/01/22 12:56:57;;;;;;;12.75;6.85;;;1.60;14.00;;;;;;7370772;19;20017;-78
2023/01/22 12:59:43;;;;;;;13.43;7.70;;;1.60;13.20;;;;;;7368564;19;20074;-76
2023/01/22 13:02:34;;;;;;;12.73;7.22;;;1.60;13.90;;;;;;7372830;19;20456;-76
2023/01/22 13:05:20;;;;;;;10.90;7.45;;;1.60;12.70;;;;;;7371696;19;20038;-76
2023/01/22 13:08:04;;;;;;;14.00;7.85;;;1.60;14.00;;;;;;7368654;19;20612;-77
2023/01/22 13:10:35;;;;;;;13.70;8.40;;;1.60;15.00;;;;;;7366536;19;20444;-77